Time;durP1;ratioP1;P1;durP2;ratioP2;P2;SDS_P1;SDS_P2;PMS_P1;PMS_P2;Temp;Humidity;BMP_temperature;BMP_pressure;BME280_temperature;BME280_humidity;BME280_pressure;Samples;Min_cycle;Max_cycle;Signal;HPM_P1;HPM_P2
2021/08/27 00:02:05;;;;;;;;;5.75;4.75;;;;;19.90;43.56;101365.63;5082160;28;45342;-55
2021/08/27 00:04:31;;;;;;;;;5.00;3.75;;;;;19.90;43.69;101373.63;5063030;27;45562;-53
2021/08/27 00:06:56;;;;;;;;;7.50;6.00;;;;;19.88;43.27;101364.81;5061868;28;45432;-54
2021/08/27 00:09:21;;;;;;;;;4.00;4.00;;;;;19.87;43.56;101364.88;5061646;28;45402;-53
2021/08/27 00:11:47;;;;;;;;;5.50;4.00;;;;;19.87;43.23;101370.22;5061380;28;45395;-54
2021/08/27 00:14:13;;;;;;;;;8.25;6.00;;;;;19.81;43.38;101358.84;5061732;28;45317;-55
2021/08/27 00:16:38;;;;;;;;;7.00;6.50;;;;;19.82;43.68;101367.72;5061877;28;46061;-54
2021/08/27 00:19:04;;;;;;;;;6.00;5.00;;;;;19.81;43.39;101363.34;5061761;28;45292;-53
2021/08/27 00:21:29;;;;;;;;;8.75;4.25;;;;;19.78;43.41;101361.63;5061472;28;45473;-55
2021/08/27 00:23:54;;;;;;;;;5.50;5.00;;;;;19.79;43.92;101360.72;5061416;28;45552;-54
2021/08/27 00:26:20;;;;;;;;;6.00;5.00;;;;;19.77;43.99;101362.59;5068618;28;48282;-53
2021/08/27 00:28:45;;;;;;;;;8.00;5.75;;;;;19.75;43.52;101364.47;5061629;28;45224;-55
2021/08/27 00:31:10;;;;;;;;;6.75;5.50;;;;;19.74;43.44;101357.38;5059898;28;45676;-57
2021/08/27 00:33:36;;;;;;;;;5.75;3.75;;;;;19.74;44.01;101353.88;5060833;28;45243;-53
2021/08/27 00:36:01;;;;;;;;;6.50;6.50;;;;;19.74;43.58;101353.88;5060402;28;45553;-54
2021/08/27 00:38:26;;;;;;;;;5.50;5.50;;;;;19.72;43.96;101359.28;5067937;28;45493;-55
2021/08/27 00:40:52;;;;;;;;;5.00;4.00;;;;;19.71;44.17;101360.19;5082240;27;45475;-54
2021/08/27 00:43:17;;;;;;;;;8.75;6.50;;;;;19.71;44.05;101357.53;5081761;28;45295;-54
2021/08/27 00:45:44;;;;;;;;;6.00;4.75;;;;;19.70;44.18;101355.78;5081919;28;45399;-53
2021/08/27 00:48:10;;;;;;;;;6.00;6.00;;;;;19.69;43.77;101356.72;5081784;28;45274;-55
2021/08/27 00:50:35;;;;;;;;;6.00;5.50;;;;;19.68;44.29;101362.97;5081794;28;45451;-54
2021/08/27 00:53:01;;;;;;;;;6.00;3.50;;;;;19.67;43.93;101360.38;5081421;28;45445;-55
2021/08/27 00:55:27;;;;;;;;;7.50;6.50;;;;;19.62;43.97;101353.47;5081852;28;46227;-55
2021/08/27 00:57:52;;;;;;;;;6.00;3.75;;;;;19.63;43.94;101360.53;5081461;28;45305;-55
2021/08/27 01:00:18;;;;;;;;;5.00;5.00;;;;;19.64;43.88;101359.56;5081847;28;45441;-53
2021/08/27 01:02:43;;;;;;;;;9.25;5.00;;;;;19.63;44.05;101351.66;5081541;28;45301;-52
2021/08/27 01:05:10;;;;;;;;;7.50;5.25;;;;;19.61;44.68;101341.06;5070035;28;45993;-54
2021/08/27 01:07:47;;;;;;;;;7.50;6.00;;;;;19.60;44.40;101343.78;5077983;28;45230;-51
2021/08/27 01:10:20;;;;;;;;;8.75;6.00;;;;;19.58;44.21;101345.66;5081537;27;45516;-54
2021/08/27 01:13:11;;;;;;;;;8.50;5.50;;;;;19.55;44.27;101337.78;5081243;28;45403;-53
2021/08/27 01:15:48;;;;;;;;;10.25;7.25;;;;;19.51;44.64;101342.38;5081147;28;47737;-55
2021/08/27 01:18:27;;;;;;;;;5.25;4.25;;;;;19.47;44.52;101349.63;5068705;28;45285;-54
2021/08/27 01:20:58;;;;;;;;;5.25;4.00;;;;;19.45;44.44;101339.97;5080634;28;45347;-54
2021/08/27 01:23:43;;;;;;;;;7.00;6.00;;;;;19.43;44.49;101341.81;5079945;28;45247;-53
2021/08/27 01:26:10;;;;;;;;;5.25;4.50;;;;;19.39;44.32;101338.41;5081201;28;45375;-55
2021/08/27 01:28:44;;;;;;;;;7.00;5.50;;;;;19.37;44.83;101337.63;5079609;28;46152;-52
2021/08/27 01:31:25;;;;;;;;;6.00;6.00;;;;;19.34;44.70;101335.09;5079830;28;45486;-51
2021/08/27 01:33:59;;;;;;;;;7.75;7.00;;;;;19.29;44.59;101335.25;5080861;28;45409;-53
2021/08/27 01:36:28;;;;;;;;;7.25;6.25;;;;;19.26;44.56;101339.88;5080822;28;45284;-50
2021/08/27 01:38:53;;;;;;;;;12.50;7.25;;;;;19.25;44.95;101339.00;5079517;28;45334;-53
2021/08/27 01:41:19;;;;;;;;;9.00;6.00;;;;;19.20;44.71;101342.78;5081033;28;45373;-59
2021/08/27 01:43:48;;;;;;;;;5.00;5.00;;;;;19.17;45.07;101336.66;5080899;28;45333;-50
2021/08/27 01:46:16;;;;;;;;;7.50;4.00;;;;;19.15;44.92;101341.16;5079628;28;46963;-54
2021/08/27 01:48:45;;;;;;;;;7.75;6.00;;;;;19.12;44.81;101338.63;5080766;28;45299;-54
2021/08/27 01:51:11;;;;;;;;;13.00;6.50;;;;;19.09;44.74;101338.75;5080896;28;45277;-55
2021/08/27 01:53:38;;;;;;;;;6.00;5.00;;;;;19.07;44.96;101343.28;5080681;28;45259;-54
2021/08/27 01:56:04;;;;;;;;;9.00;7.00;;;;;19.05;45.11;101342.47;5065564;28;46648;-55
2021/08/27 01:58:31;;;;;;;;;7.25;5.25;;;;;19.04;45.21;101345.19;5080709;28;45256;-55
2021/08/27 02:00:58;;;;;;;;;11.75;9.25;;;;;19.00;45.18;101344.44;5065598;28;45332;-55
2021/08/27 02:03:27;;;;;;;;;7.00;4.50;;;;;18.98;45.28;101338.31;5080753;28;45463;-54
2021/08/27 02:05:53;;;;;;;;;7.00;4.75;;;;;18.95;44.96;101343.78;5080289;28;46325;-53
2021/08/27 02:08:21;;;;;;;;;4.50;4.50;;;;;18.93;45.57;101345.63;5080433;28;45487;-54
2021/08/27 02:10:48;;;;;;;;;6.75;6.00;;;;;18.91;45.46;101350.16;5080641;28;45330;-53
2021/08/27 02:13:15;;;;;;;;;6.25;4.00;;;;;18.86;45.31;101347.63;5080314;28;45311;-52
2021/08/27 02:15:41;;;;;;;;;6.50;4.75;;;;;18.84;45.29;101345.03;5080295;28;46196;-53
2021/08/27 02:18:06;;;;;;;;;11.00;6.50;;;;;18.81;45.10;101345.13;5080415;28;45231;-55
2021/08/27 02:20:34;;;;;;;;;8.00;6.00;;;;;18.80;45.35;101342.53;5080615;28;45337;-55
2021/08/27 02:23:03;;;;;;;;;6.00;6.00;;;;;18.77;45.26;101346.19;5079993;28;45338;-55
2021/08/27 02:25:31;;;;;;;;;11.50;8.25;;;;;18.71;45.47;101348.25;5080160;28;46164;-53
2021/08/27 02:28:02;;;;;;;;;10.75;7.25;;;;;18.71;45.62;101354.41;5080262;28;45270;-55
2021/08/27 02:30:28;;;;;;;;;7.75;5.00;;;;;18.68;45.34;101351.88;5078896;28;45568;-54
2021/08/27 02:32:55;;;;;;;;;11.50;7.00;;;;;18.67;45.65;101351.00;5078670;28;45513;-51
2021/08/27 02:35:22;;;;;;;;;8.50;6.50;;;;;18.64;45.56;101348.47;5079810;28;46620;-55
2021/08/27 02:37:49;;;;;;;;;5.75;5.00;;;;;18.61;45.37;101350.38;5078875;27;45171;-55
2021/08/27 02:40:15;;;;;;;;;11.50;6.75;;;;;18.60;45.48;101346.88;5080043;27;45521;-53
2021/08/27 02:42:41;;;;;;;;;10.75;6.25;;;;;18.59;45.65;101349.56;5079956;28;45310;-55
2021/08/27 02:45:08;;;;;;;;;9.50;7.25;;;;;18.58;45.50;101345.16;5080067;28;45415;-53
2021/08/27 02:47:34;;;;;;;;;8.75;7.75;;;;;18.52;45.67;101344.47;5080060;28;45261;-55
2021/08/27 02:50:00;;;;;;;;;5.50;5.25;;;;;18.51;45.72;101345.41;5079935;27;45250;-50
2021/08/27 02:53:16;;;;;;;;;8.00;8.00;;;;;18.49;45.81;101346.41;5079599;28;45450;-54
2021/08/27 02:55:48;;;;;;;;;10.25;6.00;;;;;18.47;45.97;101348.25;5041064;28;45392;-54
2021/08/27 02:58:29;;;;;;;;;7.50;5.00;;;;;18.41;45.93;101343.16;5059621;28;45334;-55
2021/08/27 03:00:58;;;;;;;;;6.50;6.25;;;;;18.42;46.21;101356.38;5059653;28;45245;-54
2021/08/27 03:03:26;;;;;;;;;9.00;8.00;;;;;18.42;46.17;101347.56;5059608;28;45406;-53
2021/08/27 03:05:57;;;;;;;;;10.50;9.25;;;;;18.40;46.22;101350.28;5059326;28;45340;-55
2021/08/27 03:08:24;;;;;;;;;10.50;7.00;;;;;18.39;46.28;101345.00;5059310;28;45296;-54
2021/08/27 03:11:03;;;;;;;;;10.25;6.00;;;;;18.39;46.21;101348.53;5059447;28;45327;-54
2021/08/27 03:13:43;;;;;;;;;13.25;7.25;;;;;18.38;46.21;101341.47;5059314;28;45187;-55
2021/08/27 03:16:11;;;;;;;;;8.75;8.00;;;;;18.35;46.22;101334.47;5059312;28;46336;-53
2021/08/27 03:18:56;;;;;;;;;10.75;8.25;;;;;18.35;46.18;101336.25;5059264;28;45248;-53
2021/08/27 03:21:40;;;;;;;;;10.00;7.50;;;;;18.34;46.34;101335.41;5059437;28;45374;-53
2021/08/27 03:24:20;;;;;;;;;9.50;7.75;;;;;18.34;46.56;101337.19;5059131;28;45237;-54
2021/08/27 03:26:51;;;;;;;;;8.75;5.75;;;;;18.31;46.45;101337.31;5059027;28;47590;-55
2021/08/27 03:29:19;;;;;;;;;8.25;8.25;;;;;18.30;46.68;101330.22;5059337;28;45303;-54
2021/08/27 03:31:45;;;;;;;;;8.50;6.25;;;;;18.31;46.36;101338.19;5069889;28;45437;-53
2021/08/27 03:34:11;;;;;;;;;10.50;8.25;;;;;18.32;46.80;101339.03;5061840;28;45879;-55
2021/08/27 03:36:39;;;;;;;;;8.50;6.75;;;;;18.30;46.88;101328.47;5073553;28;46276;-54
2021/08/27 03:39:05;;;;;;;;;9.50;7.00;;;;;18.33;46.57;101335.47;5077685;28;45439;-54
2021/08/27 03:41:34;;;;;;;;;6.75;6.00;;;;;18.34;46.62;101335.41;5079326;28;45292;-55
2021/08/27 03:44:01;;;;;;;;;7.00;6.50;;;;;18.32;46.77;101331.06;5078952;28;45536;-53
2021/08/27 03:46:27;;;;;;;;;10.75;7.75;;;;;18.34;46.81;101334.53;5080928;28;46212;-53
2021/08/27 03:48:54;;;;;;;;;6.75;5.00;;;;;18.35;46.78;101341.56;5082520;28;45345;-53
2021/08/27 03:51:21;;;;;;;;;6.50;6.00;;;;;18.36;46.79;101335.34;5081374;28;45325;-53
2021/08/27 03:53:47;;;;;;;;;12.50;7.75;;;;;18.36;47.03;101338.00;5082200;28;45480;-54
2021/08/27 03:56:14;;;;;;;;;10.75;7.25;;;;;18.38;47.01;101332.59;5081026;28;45434;-53
2021/08/27 03:58:41;;;;;;;;;6.25;5.25;;;;;18.38;46.93;101325.50;5069662;28;45409;-54
2021/08/27 04:01:06;;;;;;;;;11.00;6.75;;;;;18.37;47.14;101321.09;5079843;28;45691;-54
2021/08/27 04:03:33;;;;;;;;;9.50;7.75;;;;;18.38;47.29;101322.84;5081010;28;45426;-53
2021/08/27 04:06:07;;;;;;;;;8.50;7.00;;;;;18.38;47.12;101328.16;5081197;28;45436;-55
2021/08/27 04:08:35;;;;;;;;;9.00;8.25;;;;;18.39;47.15;101327.25;5081440;28;45723;-55
2021/08/27 04:11:00;;;;;;;;;9.50;7.25;;;;;18.38;47.20;101324.63;5082239;28;45467;-55
2021/08/27 04:13:26;;;;;;;;;9.75;6.50;;;;;18.38;47.24;101319.31;5081793;28;45238;-55
2021/08/27 04:15:52;;;;;;;;;7.25;5.50;;;;;18.35;47.06;101325.59;5081836;28;45314;-55
2021/08/27 04:18:17;;;;;;;;;7.75;7.00;;;;;18.35;47.08;101317.63;5081889;28;45342;-54
2021/08/27 04:20:42;;;;;;;;;10.00;5.75;;;;;18.35;47.38;101317.63;5081738;28;45255;-55
2021/08/27 04:23:08;;;;;;;;;11.50;8.00;;;;;18.35;47.05;101320.28;5081711;28;45377;-54
2021/08/27 04:25:33;;;;;;;;;8.00;6.50;;;;;18.33;46.96;101308.84;5081601;28;45264;-54
2021/08/27 04:27:59;;;;;;;;;9.50;6.50;;;;;18.33;47.30;101322.16;5080373;28;45465;-55
2021/08/27 04:30:24;;;;;;;;;8.50;7.25;;;;;18.31;47.34;101322.22;5080443;28;45364;-55
2021/08/27 04:32:49;;;;;;;;;11.00;6.75;;;;;18.30;47.24;101323.16;5081804;28;45374;-52
2021/08/27 04:35:15;;;;;;;;;9.25;7.75;;;;;18.28;47.50;101324.13;5081472;28;45286;-51
2021/08/27 04:37:40;;;;;;;;;9.75;8.50;;;;;18.27;47.34;101333.88;5080154;28;45382;-55
2021/08/27 04:40:06;;;;;;;;;9.50;6.75;;;;;18.26;47.36;101333.94;5081175;28;45382;-55
2021/08/27 04:42:32;;;;;;;;;10.75;9.25;;;;;18.25;47.37;101329.53;5081558;27;45241;-53
2021/08/27 04:44:57;;;;;;;;;17.25;15.50;;;;;18.22;47.12;101330.53;5081105;28;45284;-55
2021/08/27 04:47:22;;;;;;;;;12.75;9.00;;;;;18.20;47.61;101327.06;5081510;28;45366;-54
2021/08/27 04:49:48;;;;;;;;;11.25;9.75;;;;;18.20;47.63;101340.38;5081444;28;45332;-55
2021/08/27 04:52:13;;;;;;;;;9.25;8.00;;;;;18.20;47.45;101337.72;5080981;28;45387;-53
2021/08/27 04:54:38;;;;;;;;;9.25;6.75;;;;;18.16;47.46;101342.28;5081117;28;45381;-55
2021/08/27 04:57:04;;;;;;;;;7.25;7.00;;;;;18.17;47.65;101343.97;5081411;28;45315;-54
2021/08/27 04:59:30;;;;;;;;;8.25;7.25;;;;;18.15;47.61;101348.50;5081570;28;45495;-52
2021/08/27 05:01:55;;;;;;;;;8.75;5.25;;;;;18.14;47.57;101348.56;5081494;28;45223;-53
2021/08/27 05:04:21;;;;;;;;;8.50;5.00;;;;;18.14;47.96;101354.75;5081125;28;45938;-53
2021/08/27 05:06:46;;;;;;;;;10.75;8.00;;;;;18.13;47.89;101350.34;5069786;28;45403;-55
2021/08/27 05:09:12;;;;;;;;;6.25;6.25;;;;;18.13;47.52;101347.69;5077720;28;45339;-55
2021/08/27 05:11:38;;;;;;;;;11.25;8.50;;;;;18.10;47.91;101357.56;5081279;28;45242;-55
2021/08/27 05:14:03;;;;;;;;;10.75;9.50;;;;;18.11;47.77;101357.53;5080898;28;46101;-54
2021/08/27 05:16:29;;;;;;;;;11.00;9.00;;;;;18.11;48.07;101364.63;5069763;28;45403;-55
2021/08/27 05:18:54;;;;;;;;;12.25;11.75;;;;;18.12;48.06;101361.03;5077845;28;45449;-56
2021/08/27 05:21:19;;;;;;;;;12.00;8.25;;;;;18.11;47.75;101365.50;5081151;28;45287;-54
2021/08/27 05:23:45;;;;;;;;;12.25;9.50;;;;;18.12;47.75;101371.69;5080916;28;45356;-54
2021/08/27 05:26:10;;;;;;;;;9.00;8.25;;;;;18.12;47.92;101372.53;5079716;28;45359;-55
2021/08/27 05:28:35;;;;;;;;;10.25;7.00;;;;;18.12;47.84;101367.22;5081125;28;45272;-54
2021/08/27 05:31:01;;;;;;;;;10.50;9.75;;;;;18.12;48.05;101369.88;5081084;28;45252;-55
2021/08/27 05:33:26;;;;;;;;;12.25;8.00;;;;;18.11;48.14;101370.84;5080914;28;45367;-53
2021/08/27 05:35:52;;;;;;;;;11.50;8.75;;;;;18.13;48.21;101376.09;5080696;28;45481;-55
2021/08/27 05:38:17;;;;;;;;;15.25;10.75;;;;;18.13;48.29;101370.78;5078814;28;45307;-51
2021/08/27 05:40:42;;;;;;;;;10.25;8.00;;;;;18.14;48.09;101373.38;5080686;28;45248;-54
2021/08/27 05:43:08;;;;;;;;;13.25;10.25;;;;;18.15;48.25;101375.09;5080370;28;45417;-53
2021/08/27 05:45:33;;;;;;;;;16.75;11.00;;;;;18.16;48.31;101381.28;5080732;28;45394;-55
2021/08/27 05:47:58;;;;;;;;;14.50;11.75;;;;;18.16;48.41;101390.16;5080857;28;45291;-53
2021/08/27 05:50:24;;;;;;;;;9.75;9.25;;;;;18.17;48.29;101383.88;5080689;28;45524;-54
2021/08/27 05:52:50;;;;;;;;;13.75;9.50;;;;;18.20;48.33;101382.94;5079617;28;46088;-55
2021/08/27 05:55:15;;;;;;;;;11.50;10.75;;;;;18.21;48.57;101391.78;5080335;28;45198;-54
2021/08/27 05:57:40;;;;;;;;;7.25;7.25;;;;;18.23;48.48;101392.59;5080199;28;45931;-54
2021/08/27 06:00:08;;;;;;;;;12.50;12.00;;;;;18.24;48.44;101397.84;5080365;28;45461;-55
2021/08/27 06:02:33;;;;;;;;;12.00;10.50;;;;;18.26;48.44;101409.28;5079741;28;46822;-51
2021/08/27 06:04:59;;;;;;;;;11.00;9.25;;;;;18.24;48.46;101392.53;5080138;28;45410;-54
2021/08/27 06:07:26;;;;;;;;;13.75;9.00;;;;;18.26;48.43;101401.31;5079948;28;45332;-55
2021/08/27 06:09:52;;;;;;;;;12.25;10.25;;;;;18.30;48.65;101407.38;5079378;28;45322;-55
2021/08/27 06:12:17;;;;;;;;;11.75;10.25;;;;;18.31;48.79;101401.16;5079502;28;45356;-55
2021/08/27 06:14:43;;;;;;;;;15.25;12.50;;;;;18.32;48.95;101394.91;5080166;28;45291;-56
2021/08/27 06:17:08;;;;;;;;;16.00;12.75;;;;;18.37;49.01;101405.41;5080143;28;45539;-56
2021/08/27 06:19:33;;;;;;;;;15.50;11.75;;;;;18.37;48.64;101397.41;5080230;28;45308;-56
2021/08/27 06:21:59;;;;;;;;;13.00;11.25;;;;;18.40;48.70;101403.50;5079161;28;46917;-56
2021/08/27 06:24:24;;;;;;;;;14.75;10.50;;;;;18.42;48.71;101409.59;5079962;28;45236;-57
2021/08/27 06:26:50;;;;;;;;;15.50;13.75;;;;;18.44;48.86;101410.44;5048047;28;45340;-56
2021/08/27 06:29:15;;;;;;;;;13.25;12.00;;;;;18.50;48.90;101414.66;5079799;28;45387;-55
2021/08/27 06:31:41;;;;;;;;;14.75;11.50;;;;;18.53;48.89;101414.53;5079653;28;45291;-54
2021/08/27 06:34:06;;;;;;;;;21.50;14.25;;;;;18.57;48.82;101415.31;5080257;28;45336;-55
2021/08/27 06:36:31;;;;;;;;;18.25;15.75;;;;;18.59;48.74;101419.66;5080042;28;45302;-57
2021/08/27 06:38:57;;;;;;;;;14.25;13.00;;;;;18.63;48.85;101417.75;5078070;28;45453;-56
2021/08/27 06:41:22;;;;;;;;;14.75;14.25;;;;;18.66;49.02;101415.81;5065233;28;47165;-56
2021/08/27 06:43:48;;;;;;;;;13.25;11.50;;;;;18.71;48.82;101422.78;5079949;28;45162;-57
2021/08/27 06:46:18;;;;;;;;;14.75;12.75;;;;;18.74;48.92;101422.66;5080250;28;45294;-57
2021/08/27 06:48:44;;;;;;;;;16.00;13.50;;;;;18.75;49.01;101430.56;5080085;28;45405;-57
2021/08/27 06:51:10;;;;;;;;;17.00;14.00;;;;;18.77;49.00;101422.53;5078456;28;46941;-57
2021/08/27 06:53:35;;;;;;;;;14.00;12.50;;;;;18.82;48.95;101429.41;5078372;28;45255;-57
2021/08/27 06:56:01;;;;;;;;;15.00;11.50;;;;;18.84;49.19;101430.25;5078595;28;45280;-58
2021/08/27 06:58:27;;;;;;;;;18.25;15.50;;;;;18.88;49.34;101431.00;5079772;28;45236;-57
2021/08/27 07:00:53;;;;;;;;;16.50;15.00;;;;;18.90;49.21;101434.47;5079798;28;45182;-57
2021/08/27 07:03:18;;;;;;;;;16.75;13.50;;;;;18.93;48.86;101436.16;5071362;28;45425;-57
2021/08/27 07:05:44;;;;;;;;;12.75;12.25;;;;;18.96;49.32;101438.72;5072963;27;45809;-57
2021/08/27 07:08:09;;;;;;;;;14.75;14.75;;;;;18.96;49.30;101447.56;5079084;28;45473;-57
2021/08/27 07:10:35;;;;;;;;;19.00;18.50;;;;;18.99;49.12;101450.13;5062971;27;46384;-57
2021/08/27 07:13:03;;;;;;;;;18.25;11.50;;;;;19.03;49.37;101447.31;5058979;28;45287;-57
2021/08/27 07:15:28;;;;;;;;;15.00;11.75;;;;;19.05;49.47;101454.31;5059365;28;45240;-58
2021/08/27 07:17:55;;;;;;;;;21.50;17.00;;;;;19.08;49.07;101448.00;5058831;28;45527;-57
2021/08/27 07:20:22;;;;;;;;;17.75;14.50;;;;;19.11;49.04;101454.09;5059279;28;45387;-57
2021/08/27 07:22:48;;;;;;;;;17.50;10.25;;;;;19.14;49.24;101456.66;5062278;28;45493;-57
2021/08/27 07:25:14;;;;;;;;;14.75;13.75;;;;;19.18;49.42;101454.72;5062542;28;45264;-57
2021/08/27 07:27:41;;;;;;;;;17.00;15.00;;;;;19.19;49.25;101455.59;5068078;28;45458;-57
2021/08/27 07:30:09;;;;;;;;;19.25;15.25;;;;;19.22;49.20;101455.47;5062187;28;46228;-57
2021/08/27 07:32:34;;;;;;;;;15.50;11.75;;;;;19.27;49.32;101464.16;5060748;28;45278;-57
2021/08/27 07:35:00;;;;;;;;;17.25;12.25;;;;;19.30;49.47;101459.56;5060669;28;45648;-57
2021/08/27 07:37:25;;;;;;;;;14.00;12.50;;;;;19.35;49.20;101469.19;5061670;28;45383;-57
2021/08/27 07:39:51;;;;;;;;;11.50;10.50;;;;;19.36;49.39;101468.25;5074686;28;47602;-57
2021/08/27 07:42:16;;;;;;;;;12.75;9.75;;;;;19.40;49.06;101470.75;5062347;28;45216;-57
2021/08/27 07:44:41;;;;;;;;;14.25;11.75;;;;;19.43;49.27;101465.31;5061300;28;45264;-57
2021/08/27 07:47:07;;;;;;;;;15.50;12.75;;;;;19.48;49.29;101465.97;5062410;28;45555;-57
2021/08/27 07:49:33;;;;;;;;;15.00;12.00;;;;;19.49;49.08;101462.34;5062138;28;46102;-57
2021/08/27 07:51:58;;;;;;;;;14.00;10.00;;;;;19.58;49.02;101468.25;5062175;28;45372;-57
2021/08/27 07:54:24;;;;;;;;;15.25;12.00;;;;;19.60;48.86;101472.59;5062250;28;45311;-57
2021/08/27 07:56:50;;;;;;;;;16.50;13.00;;;;;19.64;48.90;101466.22;5062250;28;45247;-57
2021/08/27 07:59:15;;;;;;;;;14.25;10.50;;;;;19.71;48.93;101472.19;5061933;28;45431;-56
2021/08/27 08:01:41;;;;;;;;;11.50;9.25;;;;;19.75;48.79;101473.78;5062106;28;45330;-57
2021/08/27 08:04:06;;;;;;;;;13.50;10.00;;;;;19.80;49.04;101479.78;5062204;28;45260;-56
2021/08/27 08:06:32;;;;;;;;;15.50;10.00;;;;;19.85;48.64;101471.63;5062287;28;45383;-57
2021/08/27 08:08:58;;;;;;;;;12.75;12.00;;;;;19.90;48.92;101480.31;5061724;28;46160;-56
2021/08/27 08:11:23;;;;;;;;;12.75;8.75;;;;;19.93;48.64;101479.31;5062038;28;45256;-57
2021/08/27 08:13:49;;;;;;;;;10.00;10.00;;;;;19.99;48.77;101481.72;5074126;28;45520;-56
2021/08/27 08:16:14;;;;;;;;;9.50;8.50;;;;;20.04;48.69;101482.41;5062029;28;45216;-57
2021/08/27 08:18:40;;;;;;;;;11.00;8.75;;;;;20.09;48.62;101485.72;5061890;28;46210;-57
2021/08/27 08:21:07;;;;;;;;;14.75;12.50;;;;;20.12;48.98;101482.06;5061822;28;45433;-56
2021/08/27 08:23:32;;;;;;;;;15.00;11.25;;;;;20.17;48.40;101482.72;5061634;28;45216;-56
2021/08/27 08:25:58;;;;;;;;;13.25;9.75;;;;;20.19;48.40;101486.22;5065996;28;45247;-57
2021/08/27 08:28:23;;;;;;;;;11.00;9.50;;;;;20.23;48.72;101485.13;5061667;28;46033;-57
2021/08/27 08:30:53;;;;;;;;;8.25;7.00;;;;;20.27;48.65;101489.41;5061482;28;45222;-57
2021/08/27 08:33:19;;;;;;;;;10.00;7.00;;;;;20.30;48.64;101488.41;5061572;28;45272;-56
2021/08/27 08:35:45;;;;;;;;;7.25;4.50;;;;;20.34;48.20;101490.03;5061756;28;45452;-56
2021/08/27 08:38:10;;;;;;;;;11.75;9.25;;;;;20.38;48.49;101491.63;5066045;28;45279;-57
2021/08/27 08:40:44;;;;;;;;;13.75;9.25;;;;;20.44;48.38;101490.50;5081912;28;45464;-57
2021/08/27 08:43:12;;;;;;;;;8.75;7.25;;;;;20.49;48.31;101492.94;5081974;28;45291;-57
2021/08/27 08:45:50;;;;;;;;;8.25;8.00;;;;;20.53;47.82;101494.56;5081828;28;45196;-57
2021/08/27 08:48:20;;;;;;;;;9.50;7.25;;;;;20.57;48.41;101497.00;5081703;28;46398;-56
2021/08/27 08:50:46;;;;;;;;;8.50;7.00;;;;;20.62;47.90;101494.16;5080463;28;45257;-56
2021/08/27 08:53:13;;;;;;;;;6.75;5.50;;;;;20.65;48.18;101483.31;5081521;28;45244;-57
2021/08/27 08:55:40;;;;;;;;;8.00;6.00;;;;;20.71;47.78;101493.75;5081840;28;45464;-57
2021/08/27 08:58:06;;;;;;;;;7.50;6.25;;;;;20.77;47.79;101497.97;5081349;28;45413;-57
2021/08/27 09:00:31;;;;;;;;;5.25;4.00;;;;;20.80;47.75;101496.97;5081766;28;45343;-57
2021/08/27 09:02:59;;;;;;;;;6.75;5.00;;;;;20.85;47.96;101500.28;5081787;28;45294;-57
2021/08/27 09:05:24;;;;;;;;;4.75;4.75;;;;;20.89;47.90;101505.44;5080370;28;45432;-57
2021/08/27 09:07:50;;;;;;;;;6.00;5.00;;;;;20.93;47.82;101509.69;5081273;28;45239;-56
2021/08/27 09:10:20;;;;;;;;;5.50;5.50;;;;;20.97;47.90;101502.41;5081521;28;45355;-57
2021/08/27 09:12:46;;;;;;;;;8.25;7.75;;;;;21.02;47.54;101503.06;5081477;28;45353;-57
2021/08/27 09:15:13;;;;;;;;;5.25;5.25;;;;;21.08;47.47;101509.91;5081370;28;45460;-57
2021/08/27 09:17:46;;;;;;;;;7.00;7.00;;;;;21.12;47.33;101500.81;5081297;28;46100;-56
2021/08/27 09:20:20;;;;;;;;;6.50;4.50;;;;;21.16;47.57;101499.75;5066038;28;45394;-57
2021/08/27 09:22:52;;;;;;;;;6.75;5.75;;;;;21.22;47.38;101498.56;5080956;28;45334;-57
2021/08/27 09:25:29;;;;;;;;;7.00;5.00;;;;;21.29;46.86;101502.69;5080008;28;45272;-57
2021/08/27 09:28:16;;;;;;;;;7.75;7.25;;;;;21.35;47.46;101498.88;5080984;28;46308;-57
2021/08/27 09:30:47;;;;;;;;;5.50;4.75;;;;;21.38;47.17;101498.72;5081031;28;45395;-57
2021/08/27 09:33:17;;;;;;;;;5.75;5.00;;;;;21.44;46.99;101503.78;5081302;28;45156;-58
2021/08/27 09:36:06;;;;;;;;;5.00;4.00;;;;;21.51;47.14;101498.97;5081234;28;45265;-56
2021/08/27 09:38:34;;;;;;;;;7.50;4.00;;;;;21.57;46.44;101498.72;5079154;27;46226;-56
2021/08/27 09:41:04;;;;;;;;;2.75;2.25;;;;;21.63;46.59;101495.75;5080775;28;45310;-57
2021/08/27 09:43:40;;;;;;;;;4.75;3.50;;;;;21.70;46.29;101494.50;5079731;28;45422;-57
2021/08/27 09:46:29;;;;;;;;;4.00;3.00;;;;;21.79;46.62;101503.03;5080709;28;45558;-58
2021/08/27 09:48:54;;;;;;;;;6.50;2.50;;;;;21.86;46.07;101496.41;5080707;28;46073;-57
2021/08/27 09:51:40;;;;;;;;;5.75;3.75;;;;;21.94;46.26;101498.72;5079371;28;45292;-58
2021/08/27 09:54:06;;;;;;;;;2.00;1.50;;;;;22.00;45.99;101495.72;5080830;28;45397;-58
2021/08/27 09:56:49;;;;;;;;;6.25;2.00;;;;;22.12;45.68;101491.59;5080606;28;45335;-58
2021/08/27 09:59:14;;;;;;;;;1.00;1.00;;;;;22.22;46.00;101491.00;5080200;28;45439;-57
2021/08/27 10:01:50;;;;;;;;;2.25;1.50;;;;;22.35;45.61;101493.06;5080556;28;45247;-56
2021/08/27 10:04:16;;;;;;;;;3.00;2.00;;;;;22.43;45.31;101487.34;5080512;28;45307;-56
2021/08/27 10:06:43;;;;;;;;;2.00;1.00;;;;;22.55;45.10;101492.03;5080228;28;45437;-56
2021/08/27 10:09:09;;;;;;;;;3.25;3.00;;;;;22.68;44.79;101490.47;5080300;28;47095;-55
2021/08/27 10:11:35;;;;;;;;;5.00;3.25;;;;;22.79;44.85;101491.69;5080416;28;45417;-55
2021/08/27 10:14:01;;;;;;;;;2.00;2.00;;;;;22.92;44.85;101495.44;5080168;28;45211;-55
2021/08/27 10:16:30;;;;;;;;;1.50;1.50;;;;;23.04;44.60;101488.53;5080404;28;45450;-54
2021/08/27 10:18:56;;;;;;;;;3.00;1.75;;;;;23.17;44.46;101483.41;5080112;28;45421;-55
2021/08/27 10:21:21;;;;;;;;;2.50;2.00;;;;;23.27;44.27;101487.31;5079907;28;45276;-55
2021/08/27 10:23:47;;;;;;;;;2.75;2.50;;;;;23.36;44.11;101494.81;5080032;28;45330;-55
2021/08/27 10:26:15;;;;;;;;;2.00;2.00;;;;;23.47;44.04;101496.03;5080234;28;45318;-56
2021/08/27 10:28:40;;;;;;;;;3.75;1.75;;;;;23.57;44.01;101491.00;5079892;28;45539;-56
2021/08/27 10:31:06;;;;;;;;;5.00;4.75;;;;;23.67;43.83;101478.78;5080141;28;45250;-57
2021/08/27 10:33:40;;;;;;;;;3.25;3.25;;;;;23.80;43.61;101484.31;5080215;28;45229;-58
2021/08/27 10:36:07;;;;;;;;;2.75;2.00;;;;;23.94;43.30;101479.03;5077026;28;45494;-56
2021/08/27 10:38:45;;;;;;;;;4.75;2.00;;;;;24.10;43.31;101481.69;5075666;28;48057;-57
2021/08/27 10:41:28;;;;;;;;;2.00;1.50;;;;;24.28;43.46;101484.22;5065762;28;45392;-56
2021/08/27 10:43:57;;;;;;;;;1.00;1.00;;;;;24.49;43.46;101492.78;5068547;28;45444;-56
2021/08/27 10:46:43;;;;;;;;;2.25;2.00;;;;;24.67;42.95;101488.97;5079651;28;45318;-56
2021/08/27 10:49:09;;;;;;;;;1.00;1.00;;;;;24.93;42.84;101497.25;5079470;28;46362;-57
2021/08/27 10:51:37;;;;;;;;;1.50;1.50;;;;;25.10;42.77;101488.09;5079617;28;45524;-57
2021/08/27 10:54:04;;;;;;;;;1.00;1.00;;;;;25.25;42.92;101483.56;5079885;28;45230;-57
2021/08/27 10:56:52;;;;;;;;;2.50;2.00;;;;;25.45;42.27;101482.28;5083098;28;45449;-56
2021/08/27 10:59:20;;;;;;;;;1.00;0.25;;;;;25.58;42.42;101482.34;5083103;27;46241;-56
2021/08/27 11:01:48;;;;;;;;;2.00;2.00;;;;;25.77;41.83;101476.63;5083080;28;45277;-56
2021/08/27 11:04:26;;;;;;;;;1.00;1.00;;;;;25.97;42.30;101477.06;5083241;28;45417;-57
2021/08/27 11:06:53;;;;;;;;;3.50;2.00;;;;;26.23;41.99;101477.16;5068774;28;45793;-56
2021/08/27 11:09:32;;;;;;;;;3.25;2.75;;;;;26.52;41.50;101476.97;5080040;28;45411;-56
2021/08/27 11:12:23;;;;;;;;;30.75;28.50;;;;;26.78;41.86;101472.47;5081965;28;45361;-56
2021/08/27 11:14:53;;;;;;;;;1.00;1.00;;;;;27.04;41.72;101485.88;5083506;28;45260;-56
2021/08/27 11:17:18;;;;;;;;;1.00;1.00;;;;;27.24;41.25;101476.34;5081806;28;45421;-57
2021/08/27 11:19:51;;;;;;;;;2.50;2.50;;;;;27.44;41.41;101480.28;5083143;28;46375;-57
2021/08/27 11:22:27;;;;;;;;;0.50;0.50;;;;;27.67;41.30;101472.31;5082816;28;45333;-56
2021/08/27 11:25:02;;;;;;;;;2.00;1.25;;;;;27.89;40.87;101467.00;5083158;28;45315;-57